Time;durP1;ratioP1;P1;durP2;ratioP2;P2;SDS_P1;SDS_P2;PMS_P1;PMS_P2;Temp;Humidity;BMP_temperature;BMP_pressure;BME280_temperature;BME280_humidity;BME280_pressure;Samples;Min_cycle;Max_cycle;Signal;HPM_P1;HPM_P2
2020/12/05 00:00:51;;;;;;;40.72;24.23;;;;;;;4.61;75.89;94576.44;4195137;28;20064;-69
2020/12/05 00:02:53;;;;;;;37.70;24.20;;;;;;;4.62;75.93;94580.66;4191962;28;20406;-69
2020/12/05 00:04:54;;;;;;;35.55;23.75;;;;;;;4.62;76.08;94579.84;4194573;28;20048;-79
2020/12/05 00:06:55;;;;;;;37.25;23.50;;;;;;;4.58;76.26;94583.63;4176272;28;20384;-78
2020/12/05 00:08:56;;;;;;;38.15;24.95;;;;;;;4.62;76.34;94585.03;4175971;28;20613;-74
2020/12/05 00:10:57;;;;;;;36.58;25.17;;;;;;;4.64;76.45;94588.31;4192481;28;20123;-78
2020/12/05 00:12:59;;;;;;;39.03;25.17;;;;;;;4.68;76.79;94585.34;4193855;28;20155;-76
2020/12/05 00:15:00;;;;;;;36.70;25.02;;;;;;;4.68;76.91;94584.53;4193186;28;20052;-77
2020/12/05 00:17:01;;;;;;;39.85;25.25;;;;;;;4.70;77.06;94585.25;4194263;28;20052;-77
2020/12/05 00:19:02;;;;;;;42.03;25.13;;;;;;;4.76;77.27;94587.34;4177008;28;20065;-76
2020/12/05 00:21:03;;;;;;;40.03;26.23;;;;;;;4.75;76.42;94590.88;4192629;28;20064;-76
2020/12/05 00:23:05;;;;;;;39.50;24.73;;;;;;;4.81;76.54;94584.34;4190737;28;20048;-77
2020/12/05 00:25:06;;;;;;;41.75;26.30;;;;;;;4.85;76.71;94596.94;4193538;28;20049;-78
2020/12/05 00:27:07;;;;;;;41.85;26.08;;;;;;;4.90;76.93;94594.81;4192871;28;20392;-77
2020/12/05 00:29:08;;;;;;;35.47;23.77;;;;;;;4.98;76.15;94595.94;4158636;28;20108;-77
2020/12/05 00:31:12;;;;;;;40.33;26.17;;;;;;;4.99;76.22;94598.41;4182908;28;20052;-77
2020/12/05 00:33:13;;;;;;;38.30;24.73;;;;;;;5.02;75.80;94592.97;4202183;28;20052;-77
2020/12/05 00:35:14;;;;;;;37.92;24.85;;;;;;;5.04;75.44;94596.25;4173403;28;20049;-75
2020/12/05 00:37:15;;;;;;;35.15;23.02;;;;;;;5.07;75.42;94597.75;4193193;28;20075;-77
2020/12/05 00:39:17;;;;;;;36.85;23.48;;;;;;;5.07;75.77;94600.34;4174577;28;20128;-77
2020/12/05 00:41:18;;;;;;;35.03;22.60;;;;;;;5.07;75.35;94602.94;4175185;28;20057;-75
2020/12/05 00:43:19;;;;;;;34.30;23.27;;;;;;;5.09;75.55;94608.84;4167814;28;20690;-76
2020/12/05 00:45:21;;;;;;;34.10;21.95;;;;;;;5.06;75.82;94603.91;4174332;28;20045;-79
2020/12/05 00:47:22;;;;;;;34.50;23.65;;;;;;;5.07;75.43;94611.56;4193200;28;20572;-76
2020/12/05 00:49:23;;;;;;;34.72;21.38;;;;;;;5.07;75.51;94608.97;4181123;28;20594;-77
2020/12/05 00:51:24;;;;;;;38.33;22.13;;;;;;;5.08;75.57;94615.81;4193660;28;20059;-76
2020/12/05 00:53:25;;;;;;;34.78;22.70;;;;;;;5.08;75.80;94622.78;4192677;28;20052;-69
2020/12/05 00:55:27;;;;;;;35.92;22.05;;;;;;;5.08;75.33;94617.59;4199071;28;20048;-67
2020/12/05 00:57:28;;;;;;;35.03;21.67;;;;;;;5.08;75.08;94618.41;4182625;28;20483;-69
2020/12/05 00:59:30;;;;;;;33.20;21.80;;;;;;;5.06;75.12;94609.13;4189712;28;20079;-69
2020/12/05 01:01:31;;;;;;;35.67;22.60;;;;;;;5.07;75.26;94615.94;4191795;28;20048;-68
2020/12/05 01:03:32;;;;;;;30.27;21.05;;;;;;;5.10;75.74;94624.31;4190632;28;20484;-68
2020/12/05 01:05:35;;;;;;;34.25;21.67;;;;;;;5.12;74.98;94624.19;4191911;28;20071;-69
2020/12/05 01:07:36;;;;;;;31.98;21.60;;;;;;;5.09;75.19;94619.22;4192340;28;20045;-69
2020/12/05 01:09:37;;;;;;;34.72;21.52;;;;;;;5.07;75.20;94615.94;4192268;28;20057;-69
2020/12/05 01:11:39;;;;;;;31.33;21.35;;;;;;;5.03;75.75;94614.53;4192125;28;20052;-69
2020/12/05 01:13:40;;;;;;;32.47;21.35;;;;;;;4.99;75.33;94618.34;4191400;28;20052;-70
2020/12/05 01:15:41;;;;;;;31.58;20.98;;;;;;;5.00;75.25;94614.81;4191955;28;20204;-69
2020/12/05 01:17:43;;;;;;;37.00;21.70;;;;;;;5.03;74.80;94617.13;4193152;28;20060;-69
2020/12/05 01:19:44;;;;;;;33.95;21.63;;;;;;;5.04;75.12;94619.63;4173419;28;20044;-69
2020/12/05 01:21:45;;;;;;;34.78;22.55;;;;;;;5.05;75.34;94610.03;4193114;28;20102;-68
2020/12/05 01:23:47;;;;;;;33.70;21.98;;;;;;;5.06;74.91;94619.50;4190882;28;20044;-69
2020/12/05 01:25:48;;;;;;;35.47;22.05;;;;;;;5.03;75.04;94614.53;4191700;28;20368;-69
2020/12/05 01:27:49;;;;;;;34.78;22.25;;;;;;;5.03;75.71;94615.34;4173485;28;20115;-71
2020/12/05 01:29:50;;;;;;;35.05;21.83;;;;;;;5.02;74.75;94613.72;4190369;28;20052;-69
2020/12/05 01:31:51;;;;;;;33.97;21.73;;;;;;;5.00;75.62;94617.41;4191880;28;20415;-69
2020/12/05 01:33:53;;;;;;;32.80;20.90;;;;;;;4.99;74.85;94614.00;4192809;28;20045;-69
2020/12/05 01:35:54;;;;;;;30.38;21.55;;;;;;;4.99;74.62;94621.78;4191752;28;20045;-69
2020/12/05 01:37:55;;;;;;;33.58;21.17;;;;;;;5.01;75.09;94616.44;4191306;28;20117;-70
2020/12/05 01:39:56;;;;;;;31.10;21.52;;;;;;;5.01;74.61;94619.03;4192218;28;20052;-69
2020/12/05 01:41:57;;;;;;;30.98;20.42;;;;;;;5.01;74.93;94611.25;4191515;28;20048;-69
2020/12/05 01:43:59;;;;;;;35.72;22.20;;;;;;;4.97;74.68;94618.50;4173089;28;20079;-69
2020/12/05 01:46:03;;;;;;;37.53;22.13;;;;;;;4.75;75.41;94624.59;4190558;28;20041;-68
2020/12/05 01:48:05;;;;;;;35.25;22.02;;;;;;;4.53;76.24;94622.94;4190485;28;20120;-69
2020/12/05 01:50:06;;;;;;;36.85;21.60;;;;;;;4.56;77.04;94633.09;4192425;28;20064;-70
2020/12/05 01:52:07;;;;;;;33.92;21.52;;;;;;;4.64;76.53;94624.66;4157102;28;20535;-68
2020/12/05 01:54:09;;;;;;;34.53;22.40;;;;;;;4.70;76.21;94629.34;4173796;28;20048;-69
2020/12/05 01:56:10;;;;;;;32.67;21.20;;;;;;;4.74;76.02;94622.97;4190928;28;20056;-69
2020/12/05 01:58:12;;;;;;;30.98;19.92;;;;;;;4.77;75.98;94614.91;4174061;28;20488;-70
2020/12/05 02:00:13;;;;;;;33.45;21.58;;;;;;;4.78;75.69;94621.78;4189817;28;20121;-68
2020/12/05 02:02:15;;;;;;;33.53;20.98;;;;;;;4.79;75.66;94618.22;4191696;28;20044;-70
2020/12/05 02:04:16;;;;;;;31.15;21.77;;;;;;;4.76;74.87;94618.47;4157517;28;20265;-70
2020/12/05 02:06:45;;;;;;;33.28;21.75;;;;;;;4.79;74.81;94615.63;4173471;28;20061;-68
2020/12/05 02:09:24;;;;;;;36.22;22.13;;;;;;;4.82;75.06;94611.94;4191543;28;20369;-76
2020/12/05 02:11:29;;;;;;;33.50;21.48;;;;;;;4.77;75.07;94614.09;4149741;28;20193;-77
2020/12/05 02:13:42;;;;;;;32.85;22.25;;;;;;;4.73;75.67;94605.72;4189477;28;20561;-75
2020/12/05 02:15:45;;;;;;;33.55;22.00;;;;;;;4.74;75.96;94611.78;4174957;28;20072;-76
2020/12/05 02:17:59;;;;;;;37.65;21.42;;;;;;;4.72;75.20;94611.88;4192662;28;20059;-77
2020/12/05 02:20:02;;;;;;;31.75;19.58;;;;;;;4.68;75.64;94605.31;4189226;28;20079;-69
2020/12/05 02:22:05;;;;;;;30.48;20.50;;;;;;;4.67;76.10;94603.66;4192345;28;20415;-69
2020/12/05 02:24:06;;;;;;;32.92;19.80;;;;;;;4.67;75.90;94606.25;4173382;28;20101;-69
2020/12/05 02:26:09;;;;;;;36.30;20.60;;;;;;;4.69;75.95;94609.56;4174414;28;20049;-70
2020/12/05 02:28:11;;;;;;;32.78;19.85;;;;;;;4.71;76.34;94610.22;4174544;28;20063;-68
2020/12/05 02:30:12;;;;;;;29.95;20.00;;;;;;;4.69;76.18;94606.97;4172097;28;20396;-69
2020/12/05 02:32:13;;;;;;;32.70;19.67;;;;;;;4.68;75.51;94605.31;4172498;28;20047;-68
2020/12/05 02:34:15;;;;;;;34.67;22.10;;;;;;;4.68;75.78;94606.13;4187657;28;20064;-69
2020/12/05 02:36:16;;;;;;;31.30;20.33;;;;;;;4.69;75.62;94599.19;4173893;28;20068;-69
2020/12/05 02:38:31;;;;;;;32.55;20.63;;;;;;;4.68;75.03;94602.69;4175893;28;20218;-69
2020/12/05 02:40:33;;;;;;;30.02;19.73;;;;;;;4.69;75.38;94600.00;4175489;28;20477;-69
2020/12/05 02:42:35;;;;;;;36.67;21.00;;;;;;;4.69;75.58;94602.59;4192233;28;20064;-71
2020/12/05 02:44:45;;;;;;;33.00;20.23;;;;;;;4.69;75.03;94607.78;4182501;28;20468;-69
2020/12/05 02:46:48;;;;;;;27.77;18.33;;;;;;;4.69;74.81;94606.97;4166545;28;20113;-69
2020/12/05 02:48:50;;;;;;;30.45;18.48;;;;;;;4.71;74.90;94610.22;4190670;28;20401;-70
2020/12/05 02:50:51;;;;;;;31.15;19.35;;;;;;;4.69;75.23;94607.78;4191158;28;20071;-69
2020/12/05 02:52:52;;;;;;;27.45;17.80;;;;;;;4.70;75.60;94611.19;4207810;28;20086;-71
2020/12/05 02:54:53;;;;;;;29.60;20.15;;;;;;;4.67;76.03;94611.44;4184191;28;20109;-70
2020/12/05 02:56:55;;;;;;;31.35;18.23;;;;;;;4.61;76.34;94617.13;4175433;28;20048;-68
2020/12/05 02:58:56;;;;;;;26.92;17.83;;;;;;;4.60;76.27;94612.88;4184258;28;20151;-70
2020/12/05 03:00:57;;;;;;;29.35;18.50;;;;;;;4.61;76.06;94614.53;4185154;28;20134;-67
2020/12/05 03:02:58;;;;;;;33.55;19.33;;;;;;;4.59;75.98;94603.47;4188970;28;20577;-68
2020/12/05 03:05:00;;;;;;;26.95;18.52;;;;;;;4.58;75.78;94610.44;4194494;28;20443;-70
2020/12/05 03:07:05;;;;;;;29.23;19.90;;;;;;;4.60;76.36;94602.50;4199822;28;20048;-70
2020/12/05 03:09:08;;;;;;;26.65;18.10;;;;;;;4.63;76.22;94610.88;4193782;28;20135;-70
2020/12/05 03:11:09;;;;;;;28.80;18.63;;;;;;;4.68;76.50;94610.50;4195017;28;20051;-69
2020/12/05 03:13:11;;;;;;;28.90;18.55;;;;;;;4.67;76.26;94606.25;4190261;28;20518;-69
2020/12/05 03:15:12;;;;;;;29.23;19.15;;;;;;;4.44;76.27;94608.13;4196850;28;20043;-69
2020/12/05 03:17:13;;;;;;;28.80;17.70;;;;;;;4.42;77.18;94605.63;4176411;28;20045;-69
2020/12/05 03:19:14;;;;;;;30.08;18.52;;;;;;;4.46;76.38;94612.22;4198459;28;20056;-68
2020/12/05 03:21:16;;;;;;;28.80;19.27;;;;;;;4.53;76.45;94611.75;4180514;28;20048;-68
2020/12/05 03:23:18;;;;;;;26.70;17.73;;;;;;;4.57;76.24;94605.34;4194481;28;20044;-69
2020/12/05 03:25:19;;;;;;;26.67;17.02;;;;;;;4.59;76.13;94604.28;4193983;28;20058;-69
2020/12/05 03:27:20;;;;;;;27.75;18.48;;;;;;;4.65;76.88;94610.75;4175068;28;20067;-70
2020/12/05 03:29:22;;;;;;;26.52;18.08;;;;;;;4.68;76.38;94615.69;4192770;28;20483;-70
2020/12/05 03:33:47;;;;;;;28.40;17.42;;;;;;;4.66;76.03;94627.94;4162417;28;20056;-69
2020/12/05 03:35:48;;;;;;;28.08;18.05;;;;;;;4.65;76.53;94628.91;4194840;28;20048;-69
2020/12/05 03:37:49;;;;;;;30.60;17.90;;;;;;;4.64;75.95;94632.44;4193771;28;20049;-69
2020/12/05 03:39:52;;;;;;;28.83;18.08;;;;;;;4.65;76.19;94636.69;4176692;28;20490;-68
2020/12/05 03:41:53;;;;;;;27.05;17.38;;;;;;;4.66;75.96;94627.94;4166551;28;20505;-70
2020/12/05 03:43:55;;;;;;;26.23;17.50;;;;;;;4.69;76.11;94631.13;4201706;28;20041;-68
2020/12/05 03:45:56;;;;;;;28.02;16.52;;;;;;;4.74;75.83;94637.72;4186759;28;20102;-68
2020/12/05 03:47:57;;;;;;;25.90;16.65;;;;;;;4.69;76.25;94632.91;4178324;28;20492;-69
2020/12/05 03:49:58;;;;;;;23.45;16.20;;;;;;;4.58;76.28;94638.97;4192623;28;20093;-68
2020/12/05 03:52:00;;;;;;;23.77;16.33;;;;;;;4.60;76.00;94638.81;4202778;28;20060;-69
2020/12/05 03:54:02;;;;;;;25.33;16.70;;;;;;;4.56;75.90;94627.88;4194039;28;20087;-69
2020/12/05 03:56:03;;;;;;;24.92;16.15;;;;;;;4.56;75.80;94638.28;4194536;28;20417;-67
2020/12/05 03:58:05;;;;;;;23.90;16.95;;;;;;;4.54;75.98;94636.72;4199647;28;20121;-69
2020/12/05 04:00:06;;;;;;;23.85;16.80;;;;;;;4.59;76.04;94642.38;4191533;28;20048;-70
2020/12/05 04:02:07;;;;;;;27.17;17.42;;;;;;;4.64;76.29;94641.03;4176845;28;20277;-68
2020/12/05 04:04:08;;;;;;;28.45;17.55;;;;;;;4.66;76.12;94635.72;4173007;28;20045;-68
2020/12/05 04:06:12;;;;;;;24.50;16.45;;;;;;;4.67;76.43;94640.00;4189381;28;20677;-68
2020/12/05 04:08:13;;;;;;;26.40;16.75;;;;;;;4.71;76.45;94637.03;4201347;28;20552;-68
2020/12/05 04:10:14;;;;;;;23.20;16.10;;;;;;;4.77;75.89;94630.50;4191380;28;20057;-68
2020/12/05 04:12:15;;;;;;;26.10;16.67;;;;;;;4.78;76.04;94634.75;4197976;28;20169;-70
2020/12/05 04:14:17;;;;;;;24.23;15.90;;;;;;;4.76;75.45;94644.44;4205212;28;20056;-69
2020/12/05 04:16:18;;;;;;;24.67;17.13;;;;;;;4.77;75.25;94650.44;4176435;28;20079;-68
2020/12/05 04:18:19;;;;;;;26.15;16.45;;;;;;;4.77;75.29;94648.66;4193835;28;20635;-69
2020/12/05 04:20:20;;;;;;;25.05;16.77;;;;;;;4.77;75.82;94648.66;4202820;28;20471;-70
2020/12/05 04:22:22;;;;;;;24.88;16.95;;;;;;;4.76;75.93;94646.22;4198956;28;20051;-69
2020/12/05 04:24:23;;;;;;;27.25;16.98;;;;;;;4.78;75.09;94652.09;4174022;28;20051;-69
2020/12/05 04:26:24;;;;;;;25.52;17.15;;;;;;;4.74;75.59;94650.69;4193690;28;20519;-68
2020/12/05 04:28:26;;;;;;;25.33;16.80;;;;;;;4.74;75.08;94646.31;4197621;28;20113;-70
2020/12/05 04:30:27;;;;;;;26.23;17.20;;;;;;;4.68;76.04;94649.41;4198989;28;20049;-69
2020/12/05 04:32:28;;;;;;;26.40;17.77;;;;;;;4.69;75.88;94646.69;4193614;28;20060;-68
2020/12/05 04:34:29;;;;;;;26.88;17.67;;;;;;;4.68;76.36;94654.59;4192542;28;20063;-69
2020/12/05 04:36:31;;;;;;;26.55;17.95;;;;;;;4.67;75.95;94652.97;4192486;28;20052;-69
2020/12/05 04:38:32;;;;;;;25.48;16.98;;;;;;;4.70;75.82;94652.72;4192891;28;20060;-69
2020/12/05 04:40:34;;;;;;;29.75;19.00;;;;;;;4.74;75.83;94661.06;4191833;28;20118;-68
2020/12/05 04:42:45;;;;;;;25.88;17.55;;;;;;;4.74;76.03;94653.28;4177867;28;20052;-68
2020/12/05 04:44:47;;;;;;;27.92;17.60;;;;;;;4.73;75.82;94655.03;4173064;28;20049;-76
2020/12/05 04:46:49;;;;;;;27.52;17.20;;;;;;;4.76;75.30;94643.63;4193550;28;20064;-75
2020/12/05 04:48:50;;;;;;;23.90;16.08;;;;;;;4.76;75.30;94657.41;4176369;28;20482;-76
2020/12/05 04:50:53;;;;;;;28.25;17.58;;;;;;;4.78;74.84;94657.28;4175486;28;20040;-75
2020/12/05 04:53:05;;;;;;;29.75;18.15;;;;;;;4.72;74.62;94656.00;4194381;28;20072;-75
2020/12/05 04:55:07;;;;;;;25.02;17.20;;;;;;;4.68;75.59;94657.19;4173604;28;20071;-77
2020/12/05 04:57:11;;;;;;;23.70;16.23;;;;;;;4.70;75.86;94665.69;4169480;28;20052;-76
2020/12/05 04:59:13;;;;;;;25.73;17.45;;;;;;;4.69;75.51;94667.47;4173477;28;20056;-76
2020/12/05 05:01:17;;;;;;;27.63;18.02;;;;;;;4.70;75.29;94669.09;4193598;28;20052;-76
2020/12/05 05:03:21;;;;;;;24.52;17.17;;;;;;;4.65;75.59;94663.47;4175151;28;20079;-77
2020/12/05 05:05:23;;;;;;;30.70;21.63;;;;;;;4.66;75.96;94669.47;4175363;28;20545;-77
2020/12/05 05:07:25;;;;;;;27.27;19.30;;;;;;;4.67;76.40;94674.53;4197209;28;20491;-76
2020/12/05 05:09:28;;;;;;;27.02;19.10;;;;;;;4.67;76.35;94666.75;4174665;28;20502;-77
2020/12/05 05:11:30;;;;;;;25.23;18.15;;;;;;;4.67;76.21;94669.34;4174634;28;20447;-77
2020/12/05 05:13:31;;;;;;;28.60;19.55;;;;;;;4.68;77.05;94670.16;4173104;28;20053;-76
2020/12/05 05:15:32;;;;;;;26.77;18.88;;;;;;;4.71;76.76;94664.72;4175718;28;20464;-77
2020/12/05 05:17:47;;;;;;;25.60;17.92;;;;;;;4.73;76.11;94670.59;4194478;28;20059;-78
2020/12/05 05:19:48;;;;;;;29.13;18.08;;;;;;;4.72;76.77;94669.78;4175080;28;20400;-77
2020/12/05 05:21:50;;;;;;;26.42;18.48;;;;;;;4.71;76.64;94669.91;4192575;28;20110;-76
2020/12/05 05:23:52;;;;;;;26.70;17.90;;;;;;;4.67;76.90;94678.91;4196177;28;20090;-76
2020/12/05 05:25:57;;;;;;;28.75;18.58;;;;;;;4.63;76.65;94678.31;4171119;28;20136;-78
2020/12/05 05:27:58;;;;;;;28.50;19.50;;;;;;;4.57;76.03;94673.63;4188478;28;20115;-76
2020/12/05 05:30:13;;;;;;;27.17;17.92;;;;;;;4.57;76.26;94670.22;4191351;28;20578;-79
2020/12/05 05:32:28;;;;;;;26.70;19.17;;;;;;;4.56;76.55;94672.00;4175478;28;20055;-77
2020/12/05 05:34:30;;;;;;;26.55;18.60;;;;;;;4.56;76.66;94672.00;4190726;28;20036;-77
2020/12/05 05:36:31;;;;;;;29.08;21.02;;;;;;;4.58;76.53;94679.63;4178424;28;20458;-76
2020/12/05 05:38:33;;;;;;;29.63;19.83;;;;;;;4.56;76.81;94673.75;4192680;28;20071;-78
2020/12/05 05:40:34;;;;;;;31.33;21.02;;;;;;;4.61;76.53;94676.81;4192393;28;20464;-77
2020/12/05 05:42:40;;;;;;;28.73;20.63;;;;;;;4.64;76.36;94677.38;4162632;28;20517;-77
2020/12/05 05:44:42;;;;;;;31.30;20.98;;;;;;;4.64;77.04;94674.78;4180352;28;20042;-75
2020/12/05 05:46:46;;;;;;;38.78;27.05;;;;;;;4.65;76.78;94676.44;4185033;28;20368;-78
2020/12/05 05:48:49;;;;;;;72.57;46.30;;;;;;;4.71;76.36;94675.09;4174774;28;20574;-76
2020/12/05 05:50:51;;;;;;;34.38;23.35;;;;;;;4.73;77.00;94675.81;4187344;28;20052;-77
2020/12/05 05:52:53;;;;;;;29.98;20.98;;;;;;;4.75;76.40;94678.28;4174683;28;20045;-78
2020/12/05 05:54:55;;;;;;;29.35;19.83;;;;;;;4.67;76.91;94681.50;4173858;28;20052;-78
2020/12/05 05:57:13;;;;;;;28.55;20.10;;;;;;;4.64;77.32;94681.75;4173091;28;20536;-77
2020/12/05 05:59:14;;;;;;;31.92;22.33;;;;;;;4.61;77.04;94676.81;4180313;28;20554;-77
2020/12/05 06:01:16;;;;;;;31.23;23.23;;;;;;;4.65;77.49;94681.63;4174614;28;20045;-76
2020/12/05 06:03:22;;;;;;;38.70;25.65;;;;;;;4.55;77.19;94685.09;4174476;28;20053;-76
2020/12/05 06:05:24;;;;;;;37.53;24.58;;;;;;;4.48;77.24;94679.56;4189988;28;20136;-78
2020/12/05 06:07:26;;;;;;;34.40;24.25;;;;;;;4.50;77.22;94688.88;4172291;28;20053;-76
2020/12/05 06:09:34;;;;;;;36.50;24.73;;;;;;;4.50;76.79;94686.28;4173389;28;20060;-77
2020/12/05 06:11:35;;;;;;;33.47;22.50;;;;;;;4.50;77.11;94688.03;4195507;28;20056;-79
2020/12/05 06:13:36;;;;;;;30.67;22.30;;;;;;;4.48;78.10;94690.75;4175672;28;20796;-77
2020/12/05 06:15:38;;;;;;;65.65;44.47;;;;;;;4.53;77.90;94690.38;4190490;28;20205;-78
2020/12/05 06:17:39;;;;;;;34.72;24.15;;;;;;;4.59;77.65;94695.09;4189007;28;20052;-77
2020/12/05 06:19:41;;;;;;;32.53;22.23;;;;;;;4.66;76.91;94700.59;4168063;28;20060;-78
2020/12/05 06:21:42;;;;;;;29.50;20.40;;;;;;;4.63;77.36;94703.47;4160293;28;20055;-77
2020/12/05 06:23:51;;;;;;;33.55;21.00;;;;;;;4.66;78.13;94711.00;4193176;28;20067;-77
2020/12/05 06:25:53;;;;;;;31.13;22.15;;;;;;;4.69;77.38;94716.75;4174001;28;20412;-79
2020/12/05 06:28:06;;;;;;;31.63;20.27;;;;;;;4.72;76.79;94713.09;4174601;28;20117;-78
2020/12/05 06:30:08;;;;;;;29.02;20.30;;;;;;;4.77;77.01;94715.31;4189767;28;20402;-78
2020/12/05 06:32:09;;;;;;;31.77;20.42;;;;;;;4.73;77.60;94719.91;4161338;28;20091;-77
2020/12/05 06:34:13;;;;;;;28.15;18.98;;;;;;;4.74;77.41;94721.59;4190407;28;20333;-76
2020/12/05 06:36:27;;;;;;;31.15;20.10;;;;;;;4.68;78.21;94728.06;4175496;28;20053;-77
2020/12/05 06:38:28;;;;;;;30.88;18.77;;;;;;;4.71;78.69;94735.63;4191069;28;20052;-78
2020/12/05 06:40:39;;;;;;;27.23;19.45;;;;;;;4.81;77.76;94734.88;4173603;28;20887;-78
2020/12/05 06:42:44;;;;;;;30.52;19.85;;;;;;;4.87;77.36;94732.63;4184015;28;20068;-76
2020/12/05 06:44:46;;;;;;;29.92;20.23;;;;;;;4.99;77.69;94742.97;4171560;28;20576;-77
2020/12/05 06:46:53;;;;;;;27.92;19.27;;;;;;;5.09;77.65;94738.69;4190556;28;20045;-77
2020/12/05 06:48:55;;;;;;;27.98;19.27;;;;;;;5.20;76.25;94743.81;4180567;28;20496;-76
2020/12/05 06:50:56;;;;;;;30.13;19.70;;;;;;;5.30;76.63;94749.09;4189491;28;20044;-76
2020/12/05 06:52:57;;;;;;;27.30;19.80;;;;;;;5.43;76.47;94736.75;4190627;28;20113;-76
2020/12/05 06:55:02;;;;;;;28.15;20.27;;;;;;;5.48;76.23;94754.53;4173851;28;20531;-78
2020/12/05 06:57:12;;;;;;;25.75;18.83;;;;;;;5.53;75.65;94747.22;4158284;28;20102;-76
2020/12/05 06:59:23;;;;;;;28.05;19.15;;;;;;;5.63;75.21;94745.47;4187481;28;20045;-76
2020/12/05 07:01:29;;;;;;;29.08;20.05;;;;;;;5.75;75.01;94741.03;4191953;28;20052;-77
2020/12/05 07:03:31;;;;;;;26.70;19.52;;;;;;;5.85;74.86;94741.06;4173311;28;20642;-77
2020/12/05 07:05:36;;;;;;;28.80;20.90;;;;;;;5.90;75.02;94744.94;4178955;28;20433;-77
2020/12/05 07:07:37;;;;;;;30.45;20.70;;;;;;;6.01;74.84;94736.25;4190619;28;20053;-77
2020/12/05 07:09:48;;;;;;;29.20;19.33;;;;;;;6.12;75.13;94743.16;4191733;28;20646;-78
2020/12/05 07:12:19;;;;;;;32.28;22.20;;;;;;;6.19;74.16;94748.66;4192230;28;20471;-77
2020/12/05 07:14:26;;;;;;;29.10;19.85;;;;;;;6.21;74.27;94742.38;4172168;28;20578;-77
2020/12/05 07:16:29;;;;;;;35.65;23.75;;;;;;;6.28;74.65;94743.50;4191072;28;20099;-76
2020/12/05 07:18:31;;;;;;;36.20;22.35;;;;;;;6.31;74.93;94742.41;4168021;28;20061;-79
2020/12/05 07:20:32;;;;;;;55.45;33.50;;;;;;;6.31;74.74;94752.81;4186885;28;20078;-77
2020/12/05 07:22:33;;;;;;;37.95;23.67;;;;;;;6.02;76.13;94748.31;4192941;28;20060;-78
2020/12/05 07:24:34;;;;;;;32.42;23.73;;;;;;;6.04;76.03;94755.97;4191068;28;20048;-77
2020/12/05 07:26:36;;;;;;;35.53;24.60;;;;;;;6.09;75.74;94748.63;4192426;28;20063;-77
2020/12/05 07:28:42;;;;;;;40.35;27.27;;;;;;;6.11;75.70;94757.94;4174666;28;20053;-77
2020/12/05 07:30:44;;;;;;;39.83;25.63;;;;;;;6.23;75.71;94760.44;4196032;28;20056;-77
2020/12/05 07:32:46;;;;;;;37.20;24.75;;;;;;;6.37;74.87;94752.28;4194763;28;20473;-76
2020/12/05 07:34:47;;;;;;;37.67;23.73;;;;;;;6.58;74.39;94757.41;4176118;28;20049;-77
2020/12/05 07:36:48;;;;;;;32.08;22.33;;;;;;;6.81;74.21;94763.22;4177065;28;20499;-78
2020/12/05 07:38:50;;;;;;;31.58;21.60;;;;;;;6.97;73.37;94758.31;4194451;28;20056;-77
2020/12/05 07:40:51;;;;;;;31.38;21.63;;;;;;;7.15;73.22;94758.44;4173985;28;20587;-76
2020/12/05 07:42:52;;;;;;;28.70;19.98;;;;;;;7.34;72.45;94762.84;4182026;28;20132;-78
2020/12/05 07:45:02;;;;;;;27.75;18.85;;;;;;;7.46;71.69;94766.13;4158519;28;20045;-78
2020/12/05 07:47:18;;;;;;;24.75;18.00;;;;;;;7.62;71.96;94762.16;4175724;28;20131;-77
2020/12/05 07:49:19;;;;;;;21.88;17.08;;;;;;;7.73;71.42;94762.00;4193630;28;20052;-76
2020/12/05 07:51:20;;;;;;;20.35;15.68;;;;;;;7.86;70.97;94769.50;4194000;28;20524;-76
2020/12/05 07:53:26;;;;;;;24.13;17.52;;;;;;;7.97;70.96;94761.53;4174506;28;20075;-77
2020/12/05 07:55:30;;;;;;;20.67;16.02;;;;;;;8.04;70.43;94770.41;4194528;28;20057;-79
2020/12/05 07:57:33;;;;;;;20.98;16.48;;;;;;;8.08;70.00;94763.13;4194322;28;20070;-77
2020/12/05 07:59:34;;;;;;;19.73;14.63;;;;;;;8.04;69.85;94765.19;4191013;28;20139;-77
2020/12/05 08:01:56;;;;;;;20.13;14.70;;;;;;;8.01;70.22;94770.72;4176575;28;20049;-79
2020/12/05 08:04:01;;;;;;;16.83;13.02;;;;;;;8.09;70.08;94765.63;4187964;28;20472;-79
2020/12/05 08:06:06;;;;;;;;;;;;;;;8.19;69.98;94766.41;4193473;28;20040;-78
2020/12/05 08:08:08;;;;;;;14.88;12.63;;;;;;;8.27;69.55;94764.88;4186496;28;19921;-76
2020/12/05 08:10:11;;;;;;;17.00;12.75;;;;;;;8.36;69.89;94769.22;4185553;28;20052;-79
2020/12/05 08:12:40;;;;;;;19.10;13.57;;;;;;;8.42;68.79;94773.09;4180450;28;20142;-78
2020/12/05 08:15:25;;;;;;;17.27;12.43;;;;;;;8.54;68.79;94775.38;4181311;28;20129;-77
2020/12/05 08:17:26;;;;;;;14.95;12.07;;;;;;;8.61;68.52;94768.59;4184653;28;20053;-71
2020/12/05 08:19:28;;;;;;;16.25;11.82;;;;;;;8.58;68.40;94774.13;4175205;28;20053;-70
2020/12/05 08:21:30;;;;;;;16.38;12.75;;;;;;;8.49;68.52;94782.78;4195286;28;20652;-69
2020/12/05 08:23:37;;;;;;;16.92;12.98;;;;;;;8.67;68.75;94784.63;4175363;28;20103;-69
2020/12/05 08:25:38;;;;;;;18.00;13.13;;;;;;;8.72;67.99;94780.63;4188859;28;20083;-71
2020/12/05 08:27:40;;;;;;;16.40;10.95;;;;;;;8.85;67.91;94789.91;4154382;28;20057;-70
2020/12/05 08:29:41;;;;;;;16.73;11.88;;;;;;;8.98;66.92;94798.22;4173384;28;20045;-71
2020/12/05 08:31:43;;;;;;;14.63;11.25;;;;;;;9.07;66.82;94797.34;4184466;28;20144;-70
2020/12/05 08:33:49;;;;;;;15.32;11.00;;;;;;;9.15;67.08;94786.16;4192734;28;20086;-69
2020/12/05 08:35:50;;;;;;;13.98;10.00;;;;;;;9.27;66.50;94799.81;4176632;28;20056;-70
2020/12/05 08:37:51;;;;;;;12.90;10.30;;;;;;;9.25;65.57;94801.75;4190731;28;20056;-70
2020/12/05 08:39:54;;;;;;;12.57;9.90;;;;;;;9.31;65.83;94798.56;4175447;28;20500;-70
2020/12/05 08:41:55;;;;;;;12.93;10.10;;;;;;;9.43;65.90;94799.97;4195341;28;20665;-70
2020/12/05 08:43:57;;;;;;;11.85;9.65;;;;;;;9.35;65.37;94805.13;4173365;28;20115;-70
2020/12/05 08:45:58;;;;;;;11.27;8.57;;;;;;;9.30;65.54;94805.56;4181915;28;20550;-69
2020/12/05 08:47:59;;;;;;;11.73;8.80;;;;;;;9.13;65.93;94801.97;4191265;28;20106;-69
2020/12/05 08:50:00;;;;;;;12.38;9.57;;;;;;;9.25;65.35;94806.97;4180853;28;20044;-70
2020/12/05 08:52:02;;;;;;;10.38;8.13;;;;;;;9.36;65.18;94805.00;4197978;28;20044;-70
2020/12/05 08:54:07;;;;;;;11.23;8.18;;;;;;;9.25;65.81;94815.66;4156903;28;20046;-71
2020/12/05 08:56:18;;;;;;;10.15;7.75;;;;;;;9.49;65.46;94807.22;4188351;28;20052;-69
2020/12/05 08:58:19;;;;;;;10.35;8.25;;;;;;;9.49;64.55;94806.41;4192963;28;20260;-70
2020/12/05 09:00:20;;;;;;;13.15;8.90;;;;;;;9.69;64.66;94809.69;4191365;28;20110;-71
2020/12/05 09:02:34;;;;;;;9.68;8.57;;;;;;;9.70;64.67;94808.69;4201568;28;20491;-72
2020/12/05 09:04:36;;;;;;;10.70;8.80;;;;;;;9.48;64.24;94805.56;4168814;28;20056;-69
2020/12/05 09:06:39;;;;;;;10.95;8.75;;;;;;;9.50;64.36;94815.88;4188176;28;20057;-70
2020/12/05 09:08:43;;;;;;;13.05;9.75;;;;;;;9.38;65.17;94810.91;4181627;28;20068;-71
2020/12/05 09:10:45;;;;;;;13.20;8.65;;;;;;;9.29;65.12;94814.41;4173954;28;20487;-69
2020/12/05 09:12:46;;;;;;;10.45;8.63;;;;;;;9.32;65.67;94816.72;4174812;28;20321;-71
2020/12/05 09:14:48;;;;;;;11.35;9.40;;;;;;;9.30;65.62;94810.00;4191479;28;20460;-69
2020/12/05 09:16:49;;;;;;;11.35;9.43;;;;;;;9.30;65.94;94813.41;4191185;28;20203;-69
2020/12/05 09:18:51;;;;;;;10.30;8.75;;;;;;;9.23;65.54;94815.00;4191137;28;20055;-71
2020/12/05 09:20:52;;;;;;;11.75;9.30;;;;;;;9.09;65.76;94812.88;4201893;28;21282;-70
2020/12/05 09:22:56;;;;;;;11.15;9.45;;;;;;;9.05;66.74;94811.53;4191628;28;20060;-70
2020/12/05 09:24:57;;;;;;;12.85;9.70;;;;;;;9.01;66.39;94817.06;4174326;28;20558;-71
2020/12/05 09:26:59;;;;;;;12.43;9.63;;;;;;;8.70;67.26;94813.91;4191557;28;20101;-69
2020/12/05 09:29:00;;;;;;;13.82;10.40;;;;;;;8.71;68.04;94819.94;4177743;28;20070;-69
2020/12/05 09:31:07;;;;;;;13.50;10.73;;;;;;;8.79;68.03;94818.25;4208877;28;20433;-70
2020/12/05 09:33:15;;;;;;;12.45;10.07;;;;;;;8.85;67.65;94816.03;4183081;28;20053;-70
2020/12/05 09:35:18;;;;;;;12.75;10.68;;;;;;;8.79;67.85;94817.44;4192229;28;20085;-69
2020/12/05 09:37:20;;;;;;;13.25;10.52;;;;;;;8.84;67.70;94814.38;4191278;28;20052;-69